Time;durP1;ratioP1;P1;durP2;ratioP2;P2;SDS_P1;SDS_P2;PMS_P1;PMS_P2;Temp;Humidity;BMP_temperature;BMP_pressure;BME280_temperature;BME280_humidity;BME280_pressure;Samples;Min_cycle;Max_cycle;Signal;HPM_P1;HPM_P2
2022/07/26 00:01:27;;;;;;;5.80;3.60;;;21.30;97.30;;;;;;4981476;28;20182;-80
2022/07/26 00:03:53;;;;;;;3.70;3.23;;;21.30;97.30;;;;;;4978733;28;20422;-79
2022/07/26 00:06:20;;;;;;;5.80;3.20;;;21.30;97.30;;;;;;4978709;28;20585;-80
2022/07/26 00:08:46;;;;;;;4.90;3.67;;;21.40;97.30;;;;;;4979794;28;20202;-79
2022/07/26 00:11:11;;;;;;;6.40;3.40;;;21.40;97.30;;;;;;4979089;28;20426;-80
2022/07/26 00:13:37;;;;;;;8.00;4.30;;;21.40;97.30;;;;;;4978957;28;20777;-79
2022/07/26 00:16:03;;;;;;;5.43;3.87;;;21.40;97.30;;;;;;4979503;28;20706;-80
2022/07/26 00:18:29;;;;;;;2.97;2.77;;;21.40;97.30;;;;;;4979532;28;20203;-80
2022/07/26 00:20:54;;;;;;;5.10;3.60;;;21.40;97.30;;;;;;4979626;28;20502;-80
2022/07/26 00:23:20;;;;;;;3.03;2.83;;;21.40;97.30;;;;;;4979885;28;20174;-80
2022/07/26 00:25:45;;;;;;;5.67;3.00;;;21.40;97.30;;;;;;4980128;28;20533;-80
2022/07/26 00:28:11;;;;;;;4.87;3.60;;;21.40;97.30;;;;;;4979579;28;20196;-80
2022/07/26 00:30:37;;;;;;;5.40;3.10;;;21.40;97.30;;;;;;4978994;28;20266;-79
2022/07/26 00:33:04;;;;;;;6.07;3.93;;;21.40;97.30;;;;;;4978844;28;20238;-80
2022/07/26 00:35:29;;;;;;;5.27;3.83;;;21.40;97.30;;;;;;4979293;28;20516;-80
2022/07/26 00:37:55;;;;;;;2.77;2.57;;;21.40;97.30;;;;;;4979912;28;20468;-80
2022/07/26 00:40:21;;;;;;;10.93;3.10;;;21.30;97.30;;;;;;4978719;28;20213;-80
2022/07/26 00:42:46;;;;;;;5.03;2.57;;;21.30;97.30;;;;;;4979107;28;20174;-80
2022/07/26 00:45:13;;;;;;;4.40;3.77;;;21.30;97.30;;;;;;4978546;28;20186;-80
2022/07/26 00:47:39;;;;;;;7.33;4.13;;;21.30;97.30;;;;;;4978533;28;20182;-80
2022/07/26 00:50:11;;;;;;;4.07;3.17;;;21.30;97.30;;;;;;4979941;28;20422;-80
2022/07/26 00:52:37;;;;;;;5.80;3.70;;;21.30;97.30;;;;;;4978295;28;20457;-80
2022/07/26 00:55:06;;;;;;;3.13;2.80;;;21.30;97.30;;;;;;4978797;28;20426;-80
2022/07/26 00:57:34;;;;;;;3.53;2.47;;;21.30;97.30;;;;;;4978724;28;20273;-80
2022/07/26 01:00:00;;;;;;;4.90;4.23;;;21.30;97.30;;;;;;4978134;28;20497;-80
2022/07/26 01:02:26;;;;;;;3.07;2.87;;;21.20;97.30;;;;;;4980499;28;20457;-82
2022/07/26 01:04:52;;;;;;;5.63;3.67;;;21.10;97.30;;;;;;4980606;28;20942;-82
2022/07/26 01:07:18;;;;;;;5.57;3.20;;;21.10;97.30;;;;;;4979926;28;20175;-80
2022/07/26 01:09:44;;;;;;;4.13;3.23;;;21.10;97.30;;;;;;4978474;28;20272;-80
2022/07/26 01:12:09;;;;;;;3.23;2.57;;;21.10;97.30;;;;;;4978618;28;20931;-80
2022/07/26 01:14:35;;;;;;;4.97;3.90;;;21.20;97.30;;;;;;4980382;28;20213;-80
2022/07/26 01:17:01;;;;;;;8.93;3.73;;;21.20;97.30;;;;;;4978974;28;20600;-80
2022/07/26 01:19:27;;;;;;;6.73;2.70;;;21.20;97.30;;;;;;4978786;28;20207;-80
2022/07/26 01:21:52;;;;;;;5.33;3.67;;;21.20;97.30;;;;;;4978848;28;20486;-80
2022/07/26 01:24:18;;;;;;;4.20;3.30;;;21.20;97.30;;;;;;4978652;28;20178;-80
2022/07/26 01:26:44;;;;;;;6.43;4.30;;;21.20;97.30;;;;;;4978212;28;20175;-80
2022/07/26 01:29:10;;;;;;;2.97;2.83;;;21.20;97.30;;;;;;4978829;28;20577;-80
2022/07/26 01:31:35;;;;;;;3.90;3.70;;;21.30;97.30;;;;;;4978385;28;20189;-80
2022/07/26 01:34:01;;;;;;;5.47;3.23;;;21.30;97.30;;;;;;4978876;28;20187;-80
2022/07/26 01:36:27;;;;;;;3.27;3.03;;;21.30;97.30;;;;;;4978588;28;20189;-80
2022/07/26 01:38:52;;;;;;;3.87;3.70;;;21.30;97.30;;;;;;4978160;28;20218;-80
2022/07/26 01:41:18;;;;;;;6.03;3.47;;;21.30;97.30;;;;;;4978909;28;20656;-80
2022/07/26 01:43:44;;;;;;;5.87;4.07;;;21.20;97.30;;;;;;4978127;28;20181;-80
2022/07/26 01:46:12;;;;;;;4.13;3.37;;;21.20;97.30;;;;;;4978371;28;20640;-80
2022/07/26 01:48:38;;;;;;;5.20;3.67;;;21.20;97.30;;;;;;4978831;28;20570;-80
2022/07/26 01:51:04;;;;;;;8.70;5.00;;;21.20;97.30;;;;;;4978043;28;20422;-80
2022/07/26 01:53:29;;;;;;;4.30;3.80;;;21.10;97.30;;;;;;4979245;28;20476;-80
2022/07/26 01:55:55;;;;;;;19.17;3.70;;;21.10;97.30;;;;;;4979532;28;20174;-80
2022/07/26 01:58:21;;;;;;;4.40;3.17;;;21.10;97.30;;;;;;4977906;28;20206;-80
2022/07/26 02:00:47;;;;;;;4.30;2.70;;;21.10;97.30;;;;;;4978092;28;20206;-80
2022/07/26 02:03:13;;;;;;;7.57;4.03;;;21.10;97.30;;;;;;4978699;28;20221;-80
2022/07/26 02:05:39;;;;;;;2.80;2.70;;;21.10;97.30;;;;;;4980524;28;20425;-80
2022/07/26 02:08:05;;;;;;;3.03;2.40;;;21.10;97.30;;;;;;4978086;28;20473;-80
2022/07/26 02:13:15;;;;;;;4.20;2.47;;;21.10;97.30;;;;;;4980020;28;20202;-80
2022/07/26 02:15:41;;;;;;;3.87;3.47;;;21.10;97.30;;;;;;4978058;28;20445;-80
2022/07/26 02:18:07;;;;;;;3.47;3.27;;;21.10;97.30;;;;;;4977842;28;20445;-80
2022/07/26 02:20:33;;;;;;;5.83;3.83;;;21.10;97.30;;;;;;4976930;28;20731;-79
2022/07/26 02:23:03;;;;;;;3.23;3.00;;;21.20;97.30;;;;;;4977791;28;20267;-80
2022/07/26 02:25:29;;;;;;;9.13;4.47;;;21.20;97.30;;;;;;4978243;28;20182;-80
2022/07/26 02:27:54;;;;;;;3.30;3.03;;;21.20;97.30;;;;;;4978101;28;20433;-80
2022/07/26 02:30:20;;;;;;;5.00;3.03;;;21.10;97.30;;;;;;4978223;28;20218;-80
2022/07/26 02:32:46;;;;;;;4.50;2.23;;;21.10;97.30;;;;;;4977886;28;20175;-80
2022/07/26 02:35:12;;;;;;;8.70;2.70;;;21.10;97.30;;;;;;4978005;28;20182;-80
2022/07/26 02:37:39;;;;;;;4.10;3.17;;;21.00;97.30;;;;;;4977674;28;20422;-79
2022/07/26 02:40:06;;;;;;;4.70;4.40;;;21.00;97.30;;;;;;4978774;28;20632;-80
2022/07/26 02:42:31;;;;;;;5.10;3.77;;;21.00;97.30;;;;;;4977688;28;20453;-80
2022/07/26 02:44:57;;;;;;;2.77;2.57;;;20.90;97.30;;;;;;4977583;28;20422;-80
2022/07/26 02:47:23;;;;;;;2.80;2.03;;;20.90;97.30;;;;;;4977415;28;20178;-80
2022/07/26 02:49:48;;;;;;;2.80;2.60;;;20.90;97.30;;;;;;4977881;28;20209;-80
2022/07/26 02:52:14;;;;;;;22.13;2.67;;;20.80;97.30;;;;;;4977319;28;20214;-80
2022/07/26 02:54:39;;;;;;;3.17;3.00;;;20.70;97.30;;;;;;4977713;28;20233;-80
2022/07/26 02:57:05;;;;;;;3.87;2.80;;;20.70;97.30;;;;;;4977346;28;20188;-80
2022/07/26 02:59:30;;;;;;;3.20;2.83;;;20.60;97.30;;;;;;4976956;28;20230;-80
2022/07/26 03:01:57;;;;;;;3.07;2.60;;;20.60;97.30;;;;;;4977320;28;20238;-80
2022/07/26 03:04:23;;;;;;;5.43;3.00;;;20.50;97.30;;;;;;4977977;28;20178;-80
2022/07/26 03:06:48;;;;;;;3.90;2.60;;;20.50;97.30;;;;;;4978082;28;20417;-80
2022/07/26 03:09:14;;;;;;;7.63;2.80;;;20.50;97.30;;;;;;4978477;28;20296;-80
2022/07/26 03:11:40;;;;;;;13.40;3.60;;;20.40;97.30;;;;;;4978299;28;20179;-80
2022/07/26 03:14:05;;;;;;;2.43;2.13;;;20.40;97.30;;;;;;4976805;28;20278;-80
2022/07/26 03:16:31;;;;;;;4.47;2.43;;;20.30;97.30;;;;;;4976304;28;20178;-80
2022/07/26 03:18:58;;;;;;;4.87;3.50;;;20.30;97.30;;;;;;4976792;28;20220;-80
2022/07/26 03:21:24;;;;;;;7.80;3.33;;;20.20;97.30;;;;;;4976917;28;20333;-80
2022/07/26 03:23:49;;;;;;;4.10;3.20;;;20.20;97.30;;;;;;4976780;28;20425;-79
2022/07/26 03:26:15;;;;;;;21.93;4.03;;;20.20;97.30;;;;;;4976635;28;20185;-81
2022/07/26 03:28:43;;;;;;;2.80;2.60;;;20.20;97.30;;;;;;4976817;28;20288;-80
2022/07/26 03:31:10;;;;;;;7.00;3.53;;;20.20;97.30;;;;;;4976462;28;20170;-80
2022/07/26 03:33:35;;;;;;;6.23;4.50;;;20.20;97.30;;;;;;4980810;28;20426;-80
2022/07/26 03:36:01;;;;;;;5.13;3.37;;;20.10;97.30;;;;;;4980830;28;20549;-80
2022/07/26 03:38:27;;;;;;;3.20;3.00;;;20.10;97.30;;;;;;4981617;28;20194;-80
2022/07/26 03:40:52;;;;;;;4.87;2.83;;;20.10;97.30;;;;;;4981006;28;20703;-80
2022/07/26 03:43:18;;;;;;;6.27;3.97;;;20.10;97.30;;;;;;4981147;28;20282;-80
2022/07/26 03:45:44;;;;;;;4.20;2.77;;;20.10;97.30;;;;;;4981026;28;20175;-80
2022/07/26 03:48:10;;;;;;;2.53;2.33;;;20.00;97.30;;;;;;4979881;28;20240;-80
2022/07/26 03:50:35;;;;;;;2.80;2.20;;;20.00;97.30;;;;;;4979957;28;20425;-80
2022/07/26 03:53:01;;;;;;;4.53;2.70;;;19.90;97.30;;;;;;4979931;28;20686;-79
2022/07/26 03:58:11;;;;;;;3.57;2.23;;;19.80;97.30;;;;;;4980690;28;20208;-80
2022/07/26 04:00:37;;;;;;;3.00;2.80;;;19.70;97.30;;;;;;4979106;28;20540;-80
2022/07/26 04:03:02;;;;;;;2.50;1.97;;;19.70;97.30;;;;;;4978533;28;20707;-79
2022/07/26 04:05:28;;;;;;;7.20;2.80;;;19.60;97.30;;;;;;4978970;28;20204;-80
2022/07/26 04:07:53;;;;;;;2.90;2.50;;;19.50;97.30;;;;;;4978473;28;20244;-79
2022/07/26 04:10:20;;;;;;;2.50;1.97;;;19.40;97.30;;;;;;4977970;28;20185;-80
2022/07/26 04:12:46;;;;;;;2.80;2.67;;;19.40;97.30;;;;;;4978967;28;20233;-79
2022/07/26 04:15:12;;;;;;;4.50;2.20;;;19.40;97.30;;;;;;4978534;28;20923;-79
2022/07/26 04:17:41;;;;;;;3.53;2.57;;;19.40;97.30;;;;;;4977125;28;20186;-79
2022/07/26 04:20:09;;;;;;;2.23;1.97;;;19.40;97.30;;;;;;4978303;28;20261;-80
2022/07/26 04:22:35;;;;;;;2.43;1.90;;;19.40;97.30;;;;;;4984784;28;20787;-81
2022/07/26 04:25:01;;;;;;;1.50;1.40;;;19.40;97.30;;;;;;4984578;28;20418;-81
2022/07/26 04:27:26;;;;;;;3.17;3.00;;;19.40;97.30;;;;;;4983611;28;20413;-81
2022/07/26 04:29:52;;;;;;;3.07;2.00;;;19.30;97.30;;;;;;4983825;28;20206;-81
2022/07/26 04:32:17;;;;;;;3.17;2.83;;;19.40;97.30;;;;;;4984763;28;20187;-81
2022/07/26 04:34:43;;;;;;;2.30;2.10;;;19.40;97.30;;;;;;4984446;28;20213;-81
2022/07/26 04:37:08;;;;;;;4.80;2.67;;;19.40;97.30;;;;;;4985638;28;20608;-81
2022/07/26 04:39:34;;;;;;;2.17;1.87;;;19.40;97.30;;;;;;4985778;28;20570;-81
2022/07/26 04:41:59;;;;;;;3.97;3.07;;;19.40;97.30;;;;;;4984293;28;20548;-81
2022/07/26 04:44:25;;;;;;;1.90;1.70;;;19.40;97.30;;;;;;4982659;28;20354;-81
2022/07/26 04:46:50;;;;;;;3.00;1.97;;;19.40;97.30;;;;;;4983448;28;20588;-80
2022/07/26 04:49:16;;;;;;;3.03;2.33;;;19.40;97.30;;;;;;4984170;28;20198;-81
2022/07/26 04:51:41;;;;;;;2.83;1.70;;;19.40;97.30;;;;;;4984150;28;20281;-81
2022/07/26 04:54:07;;;;;;;4.50;3.20;;;19.40;97.30;;;;;;4983438;28;20226;-81
2022/07/26 04:56:33;;;;;;;3.50;2.40;;;19.40;97.30;;;;;;4983627;28;20324;-81
2022/07/26 04:58:58;;;;;;;2.90;1.77;;;19.30;97.30;;;;;;4984873;28;20230;-81
2022/07/26 05:01:24;;;;;;;2.20;2.10;;;19.30;97.30;;;;;;4983291;28;20189;-81
2022/07/26 05:03:49;;;;;;;1.87;1.73;;;19.30;97.30;;;;;;4983089;28;20677;-81
2022/07/26 05:06:15;;;;;;;5.17;2.37;;;19.30;97.30;;;;;;4982321;28;20183;-81
2022/07/26 05:08:42;;;;;;;2.50;1.97;;;19.20;97.30;;;;;;4982183;28;20202;-81
2022/07/26 05:11:08;;;;;;;3.73;2.27;;;19.20;97.30;;;;;;4983544;28;20210;-81
2022/07/26 05:13:33;;;;;;;1.90;1.83;;;19.10;97.30;;;;;;4982787;28;20414;-80
2022/07/26 05:15:59;;;;;;;1.80;1.73;;;19.10;97.30;;;;;;4982499;28;20432;-81
2022/07/26 05:18:25;;;;;;;5.13;2.30;;;19.10;97.30;;;;;;4981163;28;20289;-81
2022/07/26 05:20:51;;;;;;;3.40;1.60;;;19.10;97.30;;;;;;4981238;28;20222;-80
2022/07/26 05:23:18;;;;;;;5.93;2.13;;;19.20;97.30;;;;;;4981541;28;20418;-81
2022/07/26 05:25:44;;;;;;;2.63;2.10;;;19.20;97.30;;;;;;4981076;28;20414;-81
2022/07/26 05:28:10;;;;;;;5.43;1.80;;;19.20;97.30;;;;;;4980933;28;20438;-81
2022/07/26 05:30:36;;;;;;;2.50;2.30;;;19.20;97.30;;;;;;4981838;28;20825;-81
2022/07/26 05:33:02;;;;;;;2.37;1.60;;;19.20;97.30;;;;;;4981457;28;20425;-80
2022/07/26 05:35:27;;;;;;;2.77;1.50;;;19.30;97.30;;;;;;4980675;28;20182;-81
2022/07/26 05:37:53;;;;;;;2.37;2.10;;;19.30;97.30;;;;;;4980047;28;20739;-80
2022/07/26 05:40:19;;;;;;;3.27;2.30;;;19.40;97.30;;;;;;4980105;28;20211;-80
2022/07/26 05:42:44;;;;;;;1.67;1.30;;;19.50;97.30;;;;;;4980198;28;20422;-80
2022/07/26 05:45:10;;;;;;;1.30;1.20;;;19.60;97.30;;;;;;4980552;28;20183;-80
2022/07/26 05:47:35;;;;;;;2.07;1.70;;;19.60;97.30;;;;;;4980684;28;20186;-81
2022/07/26 05:50:01;;;;;;;1.30;1.30;;;19.70;97.30;;;;;;4980147;28;20214;-81
2022/07/26 05:52:27;;;;;;;10.90;2.03;;;19.80;97.30;;;;;;4980143;28;20647;-81
2022/07/26 05:54:53;;;;;;;2.27;1.67;;;19.80;97.30;;;;;;4998463;23;24281;-86
2022/07/26 05:57:18;;;;;;;2.30;1.53;;;19.90;97.30;;;;;;5011993;28;20220;-86
2022/07/26 05:59:44;;;;;;;2.87;1.70;;;19.90;97.30;;;;;;5030181;28;20220;-86
2022/07/26 06:02:09;;;;;;;4.07;3.03;;;19.90;97.30;;;;;;5031887;28;20547;-86
2022/07/26 06:04:35;;;;;;;1.57;1.47;;;19.90;97.30;;;;;;5032071;28;20662;-86
2022/07/26 06:07:01;;;;;;;2.40;2.00;;;20.00;97.30;;;;;;5031754;28;20177;-86
2022/07/26 06:09:26;;;;;;;3.00;1.90;;;20.00;97.30;;;;;;5031709;28;20673;-85
2022/07/26 06:11:52;;;;;;;1.97;1.40;;;20.10;97.30;;;;;;5031631;28;20219;-85
2022/07/26 06:14:19;;;;;;;3.80;2.73;;;20.10;97.30;;;;;;5031242;28;20169;-85
2022/07/26 06:16:48;;;;;;;2.03;1.20;;;20.20;97.30;;;;;;5031496;28;20180;-85
2022/07/26 06:19:14;;;;;;;1.40;1.20;;;20.20;97.30;;;;;;5031222;28;20457;-85
2022/07/26 06:21:41;;;;;;;2.17;2.00;;;20.20;97.30;;;;;;5031197;28;20514;-85
2022/07/26 06:24:07;;;;;;;3.00;1.93;;;20.30;97.30;;;;;;5031126;28;20190;-86
2022/07/26 06:26:33;;;;;;;2.37;1.53;;;20.30;97.30;;;;;;5031598;28;21012;-85
2022/07/26 06:28:58;;;;;;;2.90;2.40;;;20.30;97.30;;;;;;5031313;28;20427;-86
2022/07/26 06:31:24;;;;;;;8.40;2.87;;;20.30;97.30;;;;;;5031261;28;20199;-85
2022/07/26 06:33:50;;;;;;;1.20;1.13;;;20.30;97.30;;;;;;5031017;28;20267;-85
2022/07/26 06:36:15;;;;;;;4.20;2.37;;;20.30;97.30;;;;;;5031408;28;20594;-85
2022/07/26 06:38:41;;;;;;;4.30;2.03;;;20.30;97.30;;;;;;5030643;28;20526;-85
2022/07/26 06:41:07;;;;;;;1.67;1.57;;;20.30;97.30;;;;;;5030850;28;20250;-85
2022/07/26 06:43:32;;;;;;;2.87;2.20;;;20.30;97.30;;;;;;5031088;28;20187;-85
2022/07/26 06:45:58;;;;;;;1.80;1.70;;;20.30;97.30;;;;;;5030746;28;20173;-85
2022/07/26 06:48:24;;;;;;;1.50;1.40;;;20.30;97.30;;;;;;5030923;28;20200;-86
2022/07/26 06:50:49;;;;;;;1.40;1.30;;;20.30;97.30;;;;;;5030969;28;20180;-86
2022/07/26 06:53:15;;;;;;;1.70;1.63;;;20.40;97.30;;;;;;5030942;28;20185;-87
2022/07/26 06:55:40;;;;;;;2.40;2.20;;;20.40;97.30;;;;;;5030765;28;20220;-86
2022/07/26 06:58:06;;;;;;;1.90;1.50;;;20.40;97.30;;;;;;5030786;28;20200;-85
2022/07/26 07:00:32;;;;;;;2.60;2.27;;;20.50;97.30;;;;;;5030333;28;20250;-85
2022/07/26 07:02:57;;;;;;;1.73;1.63;;;20.60;97.30;;;;;;5031866;28;20181;-85
2022/07/26 07:05:23;;;;;;;1.43;1.30;;;20.70;97.30;;;;;;5030694;28;20184;-85
2022/07/26 07:07:48;;;;;;;2.60;1.73;;;20.70;97.30;;;;;;5030330;28;20711;-86
2022/07/26 07:10:14;;;;;;;3.57;1.43;;;20.80;97.30;;;;;;5030513;28;20596;-85
2022/07/26 07:12:40;;;;;;;1.77;1.70;;;20.80;96.80;;;;;;5031006;28;20604;-86
2022/07/26 07:15:06;;;;;;;1.60;1.50;;;20.80;96.50;;;;;;5030157;28;20181;-85
2022/07/26 07:17:32;;;;;;;1.13;1.07;;;20.90;97.30;;;;;;5030439;28;20447;-86
2022/07/26 07:19:59;;;;;;;1.50;1.40;;;20.90;96.80;;;;;;5030965;28;20509;-86
2022/07/26 07:22:25;;;;;;;3.93;1.20;;;21.00;96.80;;;;;;5030602;28;20172;-85
2022/07/26 07:24:50;;;;;;;1.50;1.43;;;21.10;96.30;;;;;;5030226;28;20464;-85
2022/07/26 07:27:16;;;;;;;1.20;1.10;;;21.10;96.50;;;;;;5030304;28;20216;-85
2022/07/26 07:29:41;;;;;;;2.40;1.63;;;21.20;96.20;;;;;;5030370;28;20248;-85
2022/07/26 07:32:07;;;;;;;3.83;1.67;;;21.30;95.90;;;;;;5030485;28;20181;-84
2022/07/26 07:34:33;;;;;;;1.20;1.10;;;21.30;94.30;;;;;;5033367;28;20206;-83
2022/07/26 07:36:58;;;;;;;4.60;2.90;;;21.40;93.60;;;;;;5032773;28;20199;-83
2022/07/26 07:39:24;;;;;;;2.50;1.10;;;21.40;94.20;;;;;;5031133;28;20202;-83
2022/07/26 07:41:49;;;;;;;4.17;1.93;;;21.50;93.60;;;;;;5030832;28;20191;-83
2022/07/26 07:44:15;;;;;;;1.77;1.47;;;21.60;94.00;;;;;;5030783;28;20528;-86
2022/07/26 07:46:41;;;;;;;1.70;1.60;;;21.60;93.60;;;;;;5032003;28;20168;-84
2022/07/26 07:49:06;;;;;;;2.03;1.93;;;21.70;93.40;;;;;;5030446;28;20670;-84
2022/07/26 07:51:32;;;;;;;1.40;1.40;;;21.70;93.30;;;;;;5030405;28;20176;-83
2022/07/26 07:53:58;;;;;;;1.73;1.50;;;21.70;93.50;;;;;;5031064;28;20633;-83
2022/07/26 07:56:24;;;;;;;1.23;1.20;;;21.80;93.00;;;;;;5031602;28;20474;-83
2022/07/26 07:58:49;;;;;;;3.90;2.73;;;21.80;92.40;;;;;;5030391;28;20196;-83
2022/07/26 08:01:15;;;;;;;0.90;0.80;;;21.80;92.50;;;;;;5030368;28;20176;-85
2022/07/26 08:03:41;;;;;;;18.37;1.50;;;21.90;92.40;;;;;;5030615;28;20176;-83
2022/07/26 08:06:08;;;;;;;1.00;0.90;;;21.90;90.90;;;;;;5033724;28;20634;-84
2022/07/26 08:08:34;;;;;;;1.00;0.90;;;21.90;90.50;;;;;;5031764;28;20200;-83
2022/07/26 08:11:01;;;;;;;1.83;1.60;;;22.00;91.30;;;;;;5030500;28;20419;-84
2022/07/26 08:13:26;;;;;;;1.83;1.00;;;22.10;91.10;;;;;;5029778;28;20441;-84
2022/07/26 08:15:53;;;;;;;1.00;0.90;;;22.20;90.80;;;;;;5031126;28;20423;-82
2022/07/26 08:18:20;;;;;;;2.13;1.87;;;22.40;90.60;;;;;;5031173;28;20219;-85
2022/07/26 08:20:45;;;;;;;11.53;1.80;;;22.50;90.00;;;;;;5033713;28;21045;-84
2022/07/26 08:23:11;;;;;;;1.90;1.77;;;22.70;89.30;;;;;;5034247;28;20427;-84
2022/07/26 08:25:36;;;;;;;1.53;1.43;;;22.80;89.60;;;;;;5033909;28;20172;-83
2022/07/26 08:28:02;;;;;;;1.20;1.10;;;22.90;89.70;;;;;;5033657;28;20258;-83
2022/07/26 08:30:28;;;;;;;2.50;1.30;;;23.00;89.50;;;;;;5034563;28;20193;-84
2022/07/26 08:32:53;;;;;;;1.63;1.40;;;23.10;89.20;;;;;;5034351;28;20212;-84
2022/07/26 08:35:20;;;;;;;1.00;0.90;;;23.10;88.70;;;;;;5035010;28;20192;-82
2022/07/26 08:37:46;;;;;;;1.40;1.30;;;23.20;89.10;;;;;;5035164;28;20590;-82
2022/07/26 08:40:12;;;;;;;5.70;1.23;;;23.20;89.00;;;;;;5034391;28;20461;-82
2022/07/26 08:42:37;;;;;;;2.23;2.10;;;23.30;88.70;;;;;;5034115;28;20274;-83
2022/07/26 08:45:03;;;;;;;1.40;1.30;;;23.40;88.40;;;;;;5033951;28;20176;-83
2022/07/26 08:47:29;;;;;;;1.50;1.40;;;23.40;88.10;;;;;;5035968;28;20188;-81
2022/07/26 08:49:54;;;;;;;1.43;1.33;;;23.30;88.20;;;;;;5036314;28;20439;-80
2022/07/26 08:52:20;;;;;;;1.10;1.03;;;23.30;88.10;;;;;;5034241;28;20184;-84
2022/07/26 08:54:49;;;;;;;2.00;1.20;;;23.20;87.30;;;;;;5032784;28;20188;-84
2022/07/26 08:57:15;;;;;;;1.33;1.23;;;23.30;87.10;;;;;;5032734;28;20229;-85
2022/07/26 08:59:41;;;;;;;1.40;1.30;;;23.30;87.50;;;;;;5034576;28;20455;-86
2022/07/26 09:02:10;;;;;;;1.37;1.30;;;23.40;87.20;;;;;;5032820;28;20469;-84
2022/07/26 09:04:41;;;;;;;1.27;1.17;;;23.50;86.90;;;;;;5023501;28;20532;-83
2022/07/26 09:07:10;;;;;;;1.53;1.43;;;23.70;86.50;;;;;;5014432;28;20462;-82
2022/07/26 09:09:54;;;;;;;3.87;2.40;;;23.70;86.30;;;;;;5013591;28;20814;-86
2022/07/26 09:12:20;;;;;;;2.30;2.10;;;23.80;86.30;;;;;;5033116;28;20419;-83
2022/07/26 09:14:46;;;;;;;1.67;1.57;;;23.90;85.70;;;;;;5019654;28;20439;-83
2022/07/26 09:17:14;;;;;;;3.63;1.93;;;24.00;86.80;;;;;;5014460;28;20412;-84
2022/07/26 09:19:39;;;;;;;1.80;1.43;;;24.10;85.80;;;;;;5029921;28;20463;-83
2022/07/26 09:22:11;;;;;;;1.17;1.07;;;24.20;85.90;;;;;;5033279;28;20446;-84
2022/07/26 09:24:42;;;;;;;1.60;1.50;;;24.30;85.10;;;;;;5033387;28;20424;-82
2022/07/26 09:27:15;;;;;;;2.60;1.30;;;24.30;85.50;;;;;;5033278;28;20481;-83
2022/07/26 09:30:07;;;;;;;1.30;1.20;;;24.40;84.90;;;;;;5033116;28;20427;-82
2022/07/26 09:32:32;;;;;;;2.33;1.90;;;24.30;84.90;;;;;;5042089;28;20484;-83
2022/07/26 09:35:16;;;;;;;1.07;0.97;;;24.20;84.60;;;;;;5053328;28;20421;-83
2022/07/26 09:37:42;;;;;;;2.57;2.10;;;24.10;85.00;;;;;;5052815;28;20250;-84
2022/07/26 09:40:11;;;;;;;1.63;1.50;;;24.20;84.30;;;;;;5043747;28;20876;-84
2022/07/26 09:42:51;;;;;;;1.00;0.90;;;24.30;84.10;;;;;;5034380;28;20983;-82
2022/07/26 09:45:17;;;;;;;2.50;1.47;;;24.40;84.30;;;;;;5036664;28;20916;-82
2022/07/26 09:47:42;;;;;;;1.13;1.03;;;24.50;83.50;;;;;;5033448;28;20411;-83
2022/07/26 09:50:30;;;;;;;1.43;1.13;;;24.60;84.70;;;;;;5033554;28;20177;-84
2022/07/26 09:52:56;;;;;;;2.40;1.67;;;24.90;83.40;;;;;;5013149;28;20177;-83
2022/07/26 09:55:22;;;;;;;1.40;1.30;;;25.00;82.80;;;;;;5013326;28;20464;-83
2022/07/26 09:57:50;;;;;;;1.67;1.57;;;25.10;82.80;;;;;;5014228;28;20409;-83
2022/07/26 10:00:17;;;;;;;1.77;1.27;;;25.10;81.30;;;;;;5013531;28;20219;-83
2022/07/26 10:02:42;;;;;;;1.27;1.17;;;25.10;81.20;;;;;;5014146;28;20423;-81
2022/07/26 10:05:08;;;;;;;1.10;1.00;;;25.10;80.60;;;;;;5014109;28;20454;-82
2022/07/26 10:07:35;;;;;;;1.30;1.20;;;25.00;80.90;;;;;;5013857;28;20178;-82
2022/07/26 10:10:11;;;;;;;1.67;1.57;;;24.80;81.60;;;;;;5021024;28;20608;-84
2022/07/26 10:12:37;;;;;;;13.40;2.43;;;25.00;82.30;;;;;;5032388;28;20422;-84
2022/07/26 10:15:03;;;;;;;1.17;1.10;;;25.10;81.00;;;;;;5033291;28;20773;-84
2022/07/26 10:17:29;;;;;;;1.30;1.20;;;25.30;81.70;;;;;;5033252;28;20518;-86
2022/07/26 10:19:57;;;;;;;1.13;1.07;;;25.40;81.00;;;;;;5031614;28;20589;-84
2022/07/26 10:22:24;;;;;;;1.40;1.30;;;25.40;79.40;;;;;;5033406;28;20173;-83
2022/07/26 10:24:51;;;;;;;1.33;1.23;;;25.50;79.40;;;;;;5033374;28;20415;-82
2022/07/26 10:27:36;;;;;;;1.30;1.30;;;25.60;79.40;;;;;;5036011;28;20423;-83
2022/07/26 10:30:21;;;;;;;1.83;1.80;;;25.70;79.80;;;;;;5031914;28;20414;-83
2022/07/26 10:32:50;;;;;;;1.40;1.30;;;25.70;80.30;;;;;;5033086;28;20423;-83
2022/07/26 10:35:44;;;;;;;3.20;1.60;;;25.70;78.60;;;;;;5031368;28;20458;-83
2022/07/26 10:38:20;;;;;;;1.10;1.00;;;25.70;78.70;;;;;;5032118;28;20829;-82
2022/07/26 10:41:01;;;;;;;1.50;1.40;;;25.60;78.70;;;;;;5011977;28;20988;-84
2022/07/26 10:43:28;;;;;;;2.27;2.07;;;25.60;79.30;;;;;;5026915;28;20422;-85
2022/07/26 10:46:15;;;;;;;2.27;2.07;;;25.50;79.20;;;;;;5032430;28;20430;-84
2022/07/26 10:49:02;;;;;;;1.07;0.97;;;25.50;79.50;;;;;;5033177;28;20431;-83
2022/07/26 10:51:34;;;;;;;1.30;1.10;;;25.40;79.00;;;;;;5032914;28;20410;-82
2022/07/26 10:54:00;;;;;;;1.83;1.43;;;25.30;78.80;;;;;;5033972;28;20793;-82
2022/07/26 10:56:28;;;;;;;1.57;1.27;;;25.20;78.90;;;;;;5034714;28;21000;-82
2022/07/26 10:58:54;;;;;;;1.33;1.23;;;25.00;79.40;;;;;;5033933;28;20496;-83
2022/07/26 11:01:19;;;;;;;1.77;1.67;;;24.80;80.30;;;;;;5033875;28;20518;-82
2022/07/26 11:03:45;;;;;;;1.43;1.33;;;24.70;81.30;;;;;;5033068;28;20176;-83
2022/07/26 11:06:17;;;;;;;1.50;1.40;;;24.50;81.70;;;;;;5032438;28;20271;-84
2022/07/26 11:08:45;;;;;;;1.50;1.10;;;24.40;81.80;;;;;;5034333;28;20499;-82
2022/07/26 11:11:11;;;;;;;1.77;1.43;;;24.20;82.00;;;;;;5034418;28;20492;-83
2022/07/26 11:13:39;;;;;;;2.50;1.47;;;24.20;82.80;;;;;;5034223;28;20442;-82
2022/07/26 11:16:07;;;;;;;1.33;1.10;;;24.10;83.10;;;;;;5034304;28;20427;-83
2022/07/26 11:18:37;;;;;;;1.90;1.80;;;24.00;83.40;;;;;;5034752;28;20447;-83
2022/07/26 11:21:14;;;;;;;2.10;1.77;;;24.00;83.40;;;;;;5035627;28;20459;-82
2022/07/26 11:23:46;;;;;;;1.40;1.30;;;23.90;83.50;;;;;;5036368;28;20418;-84
2022/07/26 11:26:19;;;;;;;2.40;2.03;;;23.90;83.60;;;;;;5034266;28;20497;-83
2022/07/26 11:28:46;;;;;;;1.03;0.93;;;24.00;84.40;;;;;;5034292;28;20442;-82
2022/07/26 11:31:12;;;;;;;1.77;1.40;;;24.00;84.40;;;;;;5035229;28;20430;-83
2022/07/26 11:33:40;;;;;;;1.40;1.33;;;24.10;83.10;;;;;;5034110;28;20427;-83
2022/07/26 11:36:06;;;;;;;6.70;2.40;;;24.20;81.90;;;;;;5033163;28;20478;-83
2022/07/26 11:38:50;;;;;;;1.60;1.50;;;24.20;82.50;;;;;;5033107;28;20434;-84
2022/07/26 11:41:27;;;;;;;1.60;1.50;;;24.50;82.80;;;;;;5033330;28;20458;-82
2022/07/26 11:43:53;;;;;;;1.70;1.60;;;24.90;82.70;;;;;;5033448;28;20411;-84
2022/07/26 11:46:19;;;;;;;1.27;1.17;;;25.20;81.90;;;;;;5034217;28;20435;-83
2022/07/26 11:48:51;;;;;;;1.53;1.43;;;25.40;80.60;;;;;;5033369;28;20438;-83
2022/07/26 11:51:22;;;;;;;2.20;1.20;;;25.50;79.70;;;;;;5032907;28;20422;-82
2022/07/26 11:53:49;;;;;;;1.33;1.10;;;25.50;79.40;;;;;;5034636;28;20427;-83
2022/07/26 11:58:59;;;;;;;5.87;1.67;;;25.20;78.80;;;;;;5012044;28;20498;-79
2022/07/26 12:01:26;;;;;;;1.20;1.10;;;25.00;79.10;;;;;;5001057;28;20424;-79
2022/07/26 12:03:53;;;;;;;1.07;0.97;;;24.90;79.40;;;;;;5015607;28;20224;-79
2022/07/26 12:06:21;;;;;;;2.10;1.73;;;24.90;79.80;;;;;;4998919;28;20453;-79
2022/07/26 12:08:50;;;;;;;3.00;1.70;;;24.90;80.40;;;;;;5010028;28;20447;-78
2022/07/26 12:11:17;;;;;;;2.80;2.10;;;25.00;79.80;;;;;;5015214;28;20562;-80
2022/07/26 12:13:56;;;;;;;1.73;1.53;;;25.10;79.40;;;;;;5015258;28;20570;-79
2022/07/26 12:16:41;;;;;;;1.47;1.37;;;25.30;80.00;;;;;;5003038;28;20427;-80
2022/07/26 12:19:16;;;;;;;1.13;1.03;;;25.20;79.50;;;;;;5015048;28;20450;-79
2022/07/26 12:21:45;;;;;;;1.70;1.60;;;25.10;78.20;;;;;;5015072;28;20427;-79
2022/07/26 12:24:32;;;;;;;1.70;1.60;;;25.00;78.70;;;;;;5017415;28;20404;-79
2022/07/26 12:27:13;;;;;;;2.40;2.20;;;24.80;79.10;;;;;;4998459;28;20426;-79
2022/07/26 12:29:40;;;;;;;1.70;1.60;;;24.80;79.70;;;;;;5014254;28;20436;-79
2022/07/26 12:32:14;;;;;;;1.87;1.70;;;24.70;79.50;;;;;;5015113;28;20412;-79
2022/07/26 12:34:53;;;;;;;2.50;1.90;;;24.60;79.80;;;;;;5014954;28;20477;-79
2022/07/26 12:37:19;;;;;;;1.63;1.33;;;24.50;80.20;;;;;;5016090;28;20609;-79
2022/07/26 12:40:16;;;;;;;3.17;1.50;;;24.50;80.30;;;;;;5015639;28;20455;-79
2022/07/26 12:42:52;;;;;;;1.27;1.20;;;24.40;80.20;;;;;;5010807;28;20357;-79
2022/07/26 12:45:20;;;;;;;1.33;1.23;;;24.40;80.90;;;;;;5015156;28;20419;-79
2022/07/26 12:47:48;;;;;;;1.40;1.30;;;24.40;80.90;;;;;;5014370;28;20428;-79
2022/07/26 12:50:15;;;;;;;1.70;1.60;;;24.40;81.30;;;;;;4996565;28;20919;-79
2022/07/26 12:52:41;;;;;;;1.73;1.60;;;24.40;81.00;;;;;;5009039;28;20428;-79
2022/07/26 12:55:11;;;;;;;3.77;2.07;;;24.40;81.80;;;;;;5015186;28;20507;-79